METAR Data
IDs: Format: Raw Decoded Include TAF

Data at: 0221 UTC 06 Dec 2020

RODN 060209Z 03015KT 4SM -RA BR FEW009 BKN012 OVC019 20/19 A3012 RMK TWR VIS 3 SLP206 $